Time;durP1;ratioP1;P1;durP2;ratioP2;P2;SDS_P1;SDS_P2;PMS_P1;PMS_P2;Temp;Humidity;BMP_temperature;BMP_pressure;BME280_temperature;BME280_humidity;BME280_pressure;Samples;Min_cycle;Max_cycle;Signal;HPM_P1;HPM_P2
2021/09/24 00:00:29;;;;;;;30.52;4.03;;;;;;;12.61;74.03;101115.97;10149676;28;20114;-70
2021/09/24 00:05:26;;;;;;;32.40;4.93;;;;;;;12.55;73.80;101111.75;10155324;28;20411;-71
2021/09/24 00:10:23;;;;;;;25.95;3.40;;;;;;;12.51;74.26;101110.78;10152167;28;20497;-71
2021/09/24 00:15:19;;;;;;;22.85;3.72;;;;;;;12.46;74.19;101108.19;10149496;28;20109;-71
2021/09/24 00:20:16;;;;;;;25.25;5.07;;;;;;;12.40;74.33;101111.09;10159800;28;20050;-70
2021/09/24 00:25:12;;;;;;;31.35;4.00;;;;;;;12.35;74.74;101096.75;10156581;28;20112;-71
2021/09/24 00:30:10;;;;;;;23.92;3.45;;;;;;;12.35;75.23;101104.97;10158133;28;20133;-70
2021/09/24 00:35:07;;;;;;;25.92;4.03;;;;;;;12.34;75.06;101098.66;10155813;28;20046;-71
2021/09/24 00:40:06;;;;;;;19.02;4.35;;;;;;;12.26;75.63;101110.44;10159600;28;20665;-71
2021/09/24 00:45:04;;;;;;;30.95;4.68;;;;;;;12.17;76.03;101115.09;10158537;28;20058;-70
2021/09/24 00:50:02;;;;;;;32.25;4.20;;;;;;;12.10;76.60;101112.81;10157073;28;20081;-69
2021/09/24 00:54:59;;;;;;;24.55;3.92;;;;;;;12.09;76.72;101118.59;10148235;28;20054;-72
2021/09/24 00:59:55;;;;;;;23.80;3.58;;;;;;;12.05;76.75;101109.41;10151850;28;20046;-70
2021/09/24 01:04:52;;;;;;;21.67;3.70;;;;;;;12.04;77.03;101118.75;10144204;28;20112;-70
2021/09/24 01:09:49;;;;;;;27.58;4.43;;;;;;;12.00;77.20;101124.88;10157250;28;20046;-70
2021/09/24 01:15:00;;;;;;;33.40;4.50;;;;;;;11.98;77.35;101132.59;10148138;28;20109;-70
2021/09/24 01:19:57;;;;;;;27.48;3.72;;;;;;;11.92;77.61;101139.34;10157561;28;20504;-70
2021/09/24 01:24:53;;;;;;;27.17;4.03;;;;;;;11.94;77.31;101123.38;10152943;28;20046;-70
2021/09/24 01:29:51;;;;;;;34.88;4.38;;;;;;;11.91;77.87;101132.25;10154269;28;20097;-71
2021/09/24 01:34:48;;;;;;;28.67;3.47;;;;;;;11.87;77.59;101131.25;10148400;28;20262;-69
2021/09/24 01:39:45;;;;;;;23.73;3.45;;;;;;;11.87;77.43;101120.31;10143686;28;20055;-69
2021/09/24 01:44:42;;;;;;;38.03;5.57;;;;;;;11.84;77.73;101115.44;10148428;28;20058;-70
2021/09/24 01:49:38;;;;;;;31.08;4.50;;;;;;;11.86;77.91;101124.16;10154882;28;20058;-70
2021/09/24 01:54:35;;;;;;;28.02;5.32;;;;;;;11.84;78.12;101118.19;10147281;28;20570;-69
2021/09/24 01:59:31;;;;;;;25.52;4.97;;;;;;;11.84;77.88;101126.41;10146921;28;20416;-70
2021/09/24 02:04:28;;;;;;;31.38;4.30;;;;;;;11.77;78.19;101124.09;10154971;28;20058;-70
2021/09/24 02:09:24;;;;;;;27.52;3.50;;;;;;;11.79;78.11;101134.75;10144786;28;20065;-70
2021/09/24 02:14:22;;;;;;;31.23;4.30;;;;;;;11.77;77.81;101134.25;10151822;28;20050;-70
2021/09/24 02:19:18;;;;;;;35.80;4.50;;;;;;;11.78;78.07;101128.44;10151558;28;20397;-70
2021/09/24 02:24:15;;;;;;;29.00;4.03;;;;;;;11.69;78.43;101124.88;10152501;28;20125;-70
2021/09/24 02:29:12;;;;;;;23.38;3.83;;;;;;;11.64;79.36;101137.91;10145052;28;20492;-71
2021/09/24 02:34:09;;;;;;;22.88;3.72;;;;;;;11.59;79.77;101133.38;10149777;28;20046;-70
2021/09/24 02:39:07;;;;;;;30.88;4.78;;;;;;;11.49;80.28;101134.44;10152186;28;20113;-70
2021/09/24 02:44:04;;;;;;;22.48;3.63;;;;;;;11.32;81.03;101148.00;10143798;28;20043;-69
2021/09/24 02:49:00;;;;;;;28.40;4.40;;;;;;;11.28;80.89;101158.78;10154723;28;20101;-70
2021/09/24 02:53:57;;;;;;;33.75;4.43;;;;;;;11.24;81.39;101162.47;10147281;28;20089;-70
2021/09/24 02:58:53;;;;;;;26.40;4.00;;;;;;;11.19;81.60;101157.94;10147733;28;20042;-70
2021/09/24 03:03:50;;;;;;;35.33;5.43;;;;;;;11.13;82.00;101170.91;10147422;28;20046;-70
2021/09/24 03:08:47;;;;;;;30.27;4.40;;;;;;;11.03;82.57;101157.47;10151591;28;20038;-70
2021/09/24 03:13:44;;;;;;;31.13;4.20;;;;;;;11.04;82.69;101164.56;10148460;28;20046;-70
2021/09/24 03:18:41;;;;;;;25.27;3.55;;;;;;;11.05;82.81;101165.38;10152511;28;20050;-69
2021/09/24 03:23:37;;;;;;;24.88;4.60;;;;;;;11.02;82.61;101164.06;10145238;28;20465;-70
2021/09/24 03:28:33;;;;;;;33.25;4.70;;;;;;;11.08;82.32;101165.56;10139774;28;20547;-69
2021/09/24 03:33:30;;;;;;;27.42;3.67;;;;;;;11.06;82.62;101164.25;10150245;28;20042;-70
2021/09/24 03:38:27;;;;;;;32.92;4.93;;;;;;;11.08;81.80;101159.28;10145706;28;20417;-70
2021/09/24 03:43:23;;;;;;;29.98;4.78;;;;;;;11.09;81.75;101161.72;10151365;28;20105;-69
2021/09/24 03:48:20;;;;;;;35.72;4.53;;;;;;;11.11;81.49;101153.97;10146193;28;20062;-70
2021/09/24 03:53:16;;;;;;;34.05;4.95;;;;;;;11.10;81.62;101146.91;10142292;28;20034;-70
2021/09/24 03:58:13;;;;;;;31.80;4.25;;;;;;;11.09;81.55;101153.50;10140797;28;20097;-71
2021/09/24 04:03:10;;;;;;;25.58;4.13;;;;;;;11.14;82.30;101169.00;10145826;28;20039;-70
2021/09/24 04:08:07;;;;;;;25.17;4.22;;;;;;;11.13;82.00;101170.91;10144821;28;20056;-71
2021/09/24 04:13:04;;;;;;;30.70;4.07;;;;;;;11.15;81.80;101176.88;10144144;28;20043;-70
2021/09/24 04:18:00;;;;;;;27.63;4.80;;;;;;;11.12;82.46;101166.56;10146910;28;20046;-70
2021/09/24 04:22:57;;;;;;;31.10;4.97;;;;;;;11.10;82.45;101177.00;10150052;28;20093;-70
2021/09/24 04:27:53;;;;;;;28.00;4.72;;;;;;;11.10;82.75;101176.22;10148415;28;20051;-70
2021/09/24 04:32:50;;;;;;;32.65;4.45;;;;;;;11.01;82.80;101186.28;10152971;28;20597;-70
2021/09/24 04:37:46;;;;;;;35.33;5.53;;;;;;;11.05;82.77;101188.09;10151513;28;20467;-70
2021/09/24 04:42:42;;;;;;;29.73;3.85;;;;;;;11.07;82.78;101191.31;10146441;28;20107;-71
2021/09/24 04:47:39;;;;;;;26.98;3.88;;;;;;;11.03;83.00;101190.31;10148143;28;20563;-70
2021/09/24 04:52:37;;;;;;;31.05;4.65;;;;;;;11.04;83.33;101182.91;10157373;28;20555;-70
2021/09/24 04:57:34;;;;;;;35.20;3.97;;;;;;;10.98;83.86;101182.22;10151848;28;20459;-70
2021/09/24 05:02:30;;;;;;;22.38;3.30;;;;;;;11.00;83.90;101173.69;10148163;28;20085;-70
2021/09/24 05:07:26;;;;;;;28.60;4.13;;;;;;;10.98;84.21;101192.34;10160248;28;20104;-70
2021/09/24 05:12:24;;;;;;;23.10;3.67;;;;;;;11.03;84.27;101200.47;10157771;28;20046;-70
2021/09/24 05:17:21;;;;;;;28.02;3.97;;;;;;;11.05;83.96;101196.28;10156148;28;20292;-70
2021/09/24 05:22:17;;;;;;;27.85;4.35;;;;;;;11.08;84.09;101201.13;10157837;28;20038;-70
2021/09/24 05:27:14;;;;;;;27.02;4.57;;;;;;;11.05;84.64;101207.25;10148497;28;20045;-70
2021/09/24 05:32:13;;;;;;;24.45;3.97;;;;;;;11.04;84.14;101200.13;10155743;28;20038;-70
2021/09/24 05:37:10;;;;;;;32.00;4.38;;;;;;;11.02;84.69;101198.81;10151307;28;20054;-70
2021/09/24 05:42:06;;;;;;;26.77;4.47;;;;;;;10.99;85.05;101189.31;10157902;28;20097;-70
2021/09/24 05:47:03;;;;;;;23.92;3.58;;;;;;;10.99;85.25;101183.84;10145468;28;20531;-70
2021/09/24 05:51:59;;;;;;;24.20;4.57;;;;;;;10.97;86.36;101196.22;10153002;28;20110;-70
2021/09/24 05:56:56;;;;;;;37.60;5.80;;;;;;;11.05;86.06;101188.09;10142049;28;20101;-70
2021/09/24 06:01:53;;;;;;;20.85;3.78;;;;;;;11.07;87.16;101202.28;10155986;28;20091;-69
2021/09/24 06:06:50;;;;;;;26.67;4.05;;;;;;;11.13;87.38;101201.00;10151981;28;20456;-70
2021/09/24 06:11:46;;;;;;;28.88;4.18;;;;;;;11.24;87.91;101195.31;10152503;28;20054;-70
2021/09/24 06:16:43;;;;;;;26.90;4.40;;;;;;;11.37;87.94;101197.16;10152285;28;20716;-69
2021/09/24 06:21:40;;;;;;;27.33;4.03;;;;;;;11.44;88.40;101216.72;10147923;28;20489;-69
2021/09/24 06:26:40;;;;;;;23.00;4.85;;;;;;;11.53;88.66;101209.38;10150629;28;20104;-70
2021/09/24 06:31:37;;;;;;;26.50;3.55;;;;;;;11.71;88.86;101214.94;10155178;28;20042;-70
2021/09/24 06:36:33;;;;;;;29.35;4.00;;;;;;;11.75;88.90;101215.94;10154597;28;20047;-70
2021/09/24 06:41:30;;;;;;;25.35;3.78;;;;;;;11.80;89.06;101224.03;10152384;28;20133;-70
2021/09/24 06:46:27;;;;;;;18.00;4.35;;;;;;;11.83;89.48;101223.38;10148830;28;20074;-70
2021/09/24 06:51:23;;;;;;;20.20;4.18;;;;;;;11.87;90.33;101229.91;10153590;28;20073;-70
2021/09/24 06:56:20;;;;;;;25.42;3.42;;;;;;;11.90;91.70;101237.47;10152560;28;20414;-70
2021/09/24 07:01:16;;;;;;;25.42;3.85;;;;;;;11.90;93.83;101234.75;10153044;28;20069;-69
2021/09/24 07:06:14;;;;;;;26.13;4.20;;;;;;;11.89;95.16;101241.34;10151984;28;20050;-70
2021/09/24 07:11:11;;;;;;;20.42;3.38;;;;;;;11.83;96.51;101253.53;10151692;28;20038;-70
2021/09/24 07:16:08;;;;;;;19.52;3.05;;;;;;;11.90;97.36;101244.91;10149952;28;20057;-70
2021/09/24 07:21:04;;;;;;;18.13;3.22;;;;;;;11.96;97.94;101238.97;10150631;28;20046;-70
2021/09/24 07:26:01;;;;;;;21.42;4.22;;;;;;;12.02;98.10;101236.91;10151302;28;20077;-70
2021/09/24 07:30:58;;;;;;;24.08;4.25;;;;;;;12.15;98.07;101235.19;10147162;28;20519;-70
2021/09/24 07:35:54;;;;;;;20.40;4.43;;;;;;;12.24;98.33;101222.34;10147270;28;20142;-69
2021/09/24 07:40:52;;;;;;;22.35;4.20;;;;;;;12.27;98.80;101216.22;10154489;28;20042;-70
2021/09/24 07:45:48;;;;;;;17.00;3.75;;;;;;;12.40;98.54;101209.81;10151129;28;20479;-70
2021/09/24 07:50:45;;;;;;;16.48;4.65;;;;;;;12.52;98.44;101211.13;10154085;28;20058;-69
2021/09/24 07:55:41;;;;;;;18.10;4.70;;;;;;;12.56;98.17;101201.16;10149244;28;20495;-69
2021/09/24 08:00:39;;;;;;;20.70;4.50;;;;;;;12.76;97.97;101206.00;10153531;28;20115;-70
2021/09/24 08:05:35;;;;;;;19.63;3.95;;;;;;;12.93;97.33;101199.75;10144663;28;20053;-70
2021/09/24 08:10:32;;;;;;;18.38;3.50;;;;;;;12.99;96.72;101190.22;10151587;28;20070;-70
2021/09/24 08:15:28;;;;;;;14.65;3.63;;;;;;;13.20;96.56;101198.59;10150507;28;20070;-70
2021/09/24 08:20:25;;;;;;;12.75;3.35;;;;;;;13.31;95.54;101209.31;10148168;28;20105;-69
2021/09/24 08:25:21;;;;;;;15.63;2.60;;;;;;;13.40;94.63;101207.34;10152407;28;20507;-70
2021/09/24 08:30:22;;;;;;;11.57;2.75;;;;;;;13.52;94.21;101199.25;10158477;28;20078;-70
2021/09/24 08:35:21;;;;;;;12.80;2.90;;;;;;;13.65;93.79;101212.00;10156305;28;20090;-70
2021/09/24 08:40:20;;;;;;;13.50;3.17;;;;;;;13.71;93.41;101206.34;10157291;28;20452;-70
2021/09/24 08:45:30;;;;;;;11.82;2.92;;;;;;;13.76;93.17;101211.66;10151362;28;20039;-70
2021/09/24 08:50:28;;;;;;;13.38;2.58;;;;;;;13.80;92.67;101215.34;10156972;28;20389;-69
2021/09/24 08:55:25;;;;;;;14.77;2.90;;;;;;;13.81;93.10;101219.75;10152642;28;20101;-70
2021/09/24 09:00:22;;;;;;;15.23;3.22;;;;;;;13.91;92.83;101213.88;10159083;28;20531;-69
2021/09/24 09:05:20;;;;;;;14.32;3.30;;;;;;;13.99;92.88;101210.28;10150675;28;20116;-71
2021/09/24 09:10:17;;;;;;;12.73;2.88;;;;;;;14.03;92.57;101186.50;10155531;28;20751;-70
2021/09/24 09:15:14;;;;;;;17.38;3.00;;;;;;;14.13;92.13;101206.50;10155727;28;20606;-71
2021/09/24 09:20:12;;;;;;;11.52;2.28;;;;;;;14.13;92.15;101201.81;10157017;28;20108;-70
2021/09/24 09:25:13;;;;;;;17.92;4.10;;;;;;;14.24;92.45;101194.00;10156376;28;20445;-71
2021/09/24 09:30:13;;;;;;;12.68;3.58;;;;;;;14.28;92.23;101205.97;10151586;28;20488;-71
2021/09/24 09:35:12;;;;;;;10.80;2.63;;;;;;;14.33;91.90;101205.78;10155058;28;20081;-70
2021/09/24 09:40:13;;;;;;;11.27;3.30;;;;;;;14.40;91.75;101211.56;10156059;28;20062;-70
2021/09/24 09:45:13;;;;;;;11.13;2.45;;;;;;;14.48;92.04;101215.41;10147096;28;20061;-69
2021/09/24 09:50:13;;;;;;;10.63;2.70;;;;;;;14.59;92.03;101218.63;10156272;28;20105;-70
2021/09/24 09:55:12;;;;;;;11.27;2.75;;;;;;;14.60;91.16;101220.25;10151670;28;20058;-70
2021/09/24 10:00:09;;;;;;;9.52;2.72;;;;;;;14.58;90.93;101222.53;10158023;28;20108;-70
2021/09/24 10:05:06;;;;;;;12.90;2.75;;;;;;;14.55;91.29;101223.16;10151225;28;20058;-69
2021/09/24 10:10:16;;;;;;;11.02;2.38;;;;;;;14.62;90.96;101223.44;10157951;28;20054;-70
2021/09/24 10:15:14;;;;;;;11.70;2.60;;;;;;;14.65;90.92;101220.03;10155739;28;20047;-70
2021/09/24 10:20:13;;;;;;;10.52;2.45;;;;;;;14.70;90.75;101219.84;10154117;28;20046;-70
2021/09/24 10:25:10;;;;;;;8.82;2.25;;;;;;;14.70;90.66;101219.84;10150580;28;20472;-70
2021/09/24 10:30:13;;;;;;;13.27;2.70;;;;;;;14.71;90.71;101224.19;10152169;28;20081;-70
2021/09/24 10:35:12;;;;;;;18.73;3.33;;;;;;;14.71;90.78;101215.94;10151764;28;20053;-70
2021/09/24 10:40:22;;;;;;;15.35;4.30;;;;;;;14.71;91.04;101210.44;10151063;28;20488;-70
2021/09/24 10:45:40;;;;;;;12.77;3.03;;;;;;;14.71;91.29;101216.78;10145757;28;20082;-70
2021/09/24 10:50:37;;;;;;;11.68;2.75;;;;;;;14.76;91.01;101213.03;10154964;28;20725;-71
2021/09/24 10:55:34;;;;;;;9.57;2.80;;;;;;;14.78;91.06;101205.22;10144631;28;20070;-70
2021/09/24 11:00:33;;;;;;;13.60;3.83;;;;;;;14.82;91.09;101205.34;10155119;28;20073;-70
2021/09/24 11:05:55;;;;;;;15.15;3.47;;;;;;;14.85;91.40;101204.69;10145171;28;20563;-71
2021/09/24 11:11:12;;;;;;;12.55;3.22;;;;;;;14.93;91.07;101196.34;10149046;28;20093;-71
2021/09/24 11:16:12;;;;;;;15.23;3.20;;;;;;;15.02;90.83;101192.75;10150003;28;20054;-70
2021/09/24 11:21:09;;;;;;;11.48;3.88;;;;;;;15.05;90.82;101187.34;10149812;28;20077;-70
2021/09/24 11:26:13;;;;;;;16.08;4.40;;;;;;;14.99;92.32;101193.41;10150772;28;20080;-71
2021/09/24 11:31:11;;;;;;;12.70;5.05;;;;;;;14.91;93.59;101195.88;10146720;28;20072;-70
2021/09/24 11:36:08;;;;;;;17.92;5.97;;;;;;;14.89;94.34;101195.41;10141937;28;20484;-70
2021/09/24 11:41:05;;;;;;;13.52;5.57;;;;;;;14.92;95.11;101189.25;10153394;28;20077;-70
2021/09/24 11:46:14;;;;;;;15.98;5.35;;;;;;;14.99;95.12;101187.91;10141803;28;20046;-70
2021/09/24 11:51:17;;;;;;;11.73;5.18;;;;;;;15.09;94.63;101176.50;10153901;28;20053;-70
2021/09/24 11:56:35;;;;;;;18.65;4.75;;;;;;;15.26;93.66;101170.81;10145000;28;20051;-70
2021/09/24 12:01:32;;;;;;;14.18;4.57;;;;;;;15.42;93.27;101156.41;10149851;28;20497;-70
2021/09/24 12:06:34;;;;;;;13.98;5.18;;;;;;;15.47;91.73;101164.44;10149795;28;20468;-70
2021/09/24 12:11:43;;;;;;;18.92;5.82;;;;;;;15.57;90.97;101155.75;10152675;28;20078;-70
2021/09/24 12:16:41;;;;;;;14.30;4.72;;;;;;;15.68;89.79;101148.66;10151897;28;20059;-70
2021/09/24 12:21:37;;;;;;;16.48;4.68;;;;;;;15.81;89.48;101140.44;10160156;28;20050;-70
2021/09/24 12:26:41;;;;;;;13.57;4.50;;;;;;;15.81;88.16;101138.50;10156306;28;20043;-70
2021/09/24 12:31:49;;;;;;;13.70;4.47;;;;;;;15.88;88.40;101135.97;10149244;28;20054;-70
2021/09/24 12:36:49;;;;;;;14.23;4.18;;;;;;;15.93;87.70;101132.19;10159379;28;20085;-69
2021/09/24 12:41:45;;;;;;;9.52;4.05;;;;;;;15.98;87.40;101124.47;10159128;28;20157;-70
2021/09/24 12:46:45;;;;;;;14.90;4.35;;;;;;;16.10;87.26;101118.13;10148577;28;20095;-70
2021/09/24 12:51:42;;;;;;;13.25;4.32;;;;;;;16.13;86.73;101109.19;10160218;28;20154;-69
2021/09/24 12:56:40;;;;;;;14.90;4.55;;;;;;;16.16;86.55;101107.69;10147226;28;20050;-69
2021/09/24 13:01:38;;;;;;;15.75;3.85;;;;;;;16.19;86.93;101107.78;10156758;28;20050;-71
2021/09/24 13:06:38;;;;;;;15.68;4.20;;;;;;;16.18;86.07;101111.72;10155483;28;20137;-69
2021/09/24 13:11:35;;;;;;;12.45;3.97;;;;;;;16.18;85.50;101097.91;10152113;28;20129;-71
2021/09/24 13:16:33;;;;;;;11.18;3.80;;;;;;;16.24;85.35;101103.19;10148139;28;20085;-70
2021/09/24 13:21:34;;;;;;;15.82;4.65;;;;;;;16.27;84.89;101099.72;10155290;28;20057;-70
2021/09/24 13:26:31;;;;;;;15.35;4.53;;;;;;;16.27;85.06;101103.31;10150753;28;20416;-71
2021/09/24 13:31:28;;;;;;;11.88;3.88;;;;;;;16.30;84.67;101096.31;10154779;28;20047;-70
2021/09/24 13:36:25;;;;;;;12.30;4.53;;;;;;;16.32;84.66;101094.00;10156712;28;20140;-70
2021/09/24 13:41:21;;;;;;;13.85;4.05;;;;;;;16.36;84.69;101083.84;10154353;28;20050;-70
2021/09/24 13:46:18;;;;;;;11.52;4.30;;;;;;;16.40;84.40;101084.78;10153401;28;20046;-70
2021/09/24 13:51:14;;;;;;;11.25;4.22;;;;;;;16.43;84.23;101081.34;10155324;28;20133;-70
2021/09/24 13:56:13;;;;;;;13.77;3.95;;;;;;;16.46;84.04;101066.81;10151926;28;20069;-70
2021/09/24 14:01:10;;;;;;;12.02;3.67;;;;;;;16.51;83.71;101071.28;10154861;28;20042;-70
2021/09/24 14:06:07;;;;;;;11.88;3.83;;;;;;;16.56;82.62;101096.69;10153147;28;20038;-69
2021/09/24 14:11:04;;;;;;;11.18;4.28;;;;;;;16.55;82.42;101097.84;10150553;28;20105;-70
2021/09/24 14:16:00;;;;;;;13.57;4.10;;;;;;;16.58;81.54;101102.66;10144235;28;20070;-70
2021/09/24 14:20:57;;;;;;;13.32;4.70;;;;;;;16.58;81.66;101091.63;10143904;28;20129;-70
2021/09/24 14:25:54;;;;;;;14.38;4.25;;;;;;;16.61;81.81;101077.09;10151252;28;20046;-69
2021/09/24 14:30:50;;;;;;;11.95;4.38;;;;;;;16.65;81.89;101079.19;10154834;28;20042;-69
2021/09/24 14:35:47;;;;;;;12.65;4.10;;;;;;;16.67;82.01;101076.88;10154525;28;20774;-69
2021/09/24 14:40:44;;;;;;;13.18;5.13;;;;;;;16.66;82.14;101069.75;10155825;28;20107;-70
2021/09/24 14:45:40;;;;;;;12.73;5.47;;;;;;;16.65;81.83;101071.72;10151513;28;20479;-69
2021/09/24 14:50:37;;;;;;;12.60;5.07;;;;;;;16.65;82.34;101070.91;10154908;28;20504;-71
2021/09/24 14:55:34;;;;;;;14.05;5.72;;;;;;;16.63;82.65;101066.53;10150152;28;20042;-70
2021/09/24 15:00:31;;;;;;;13.25;5.55;;;;;;;16.61;82.61;101068.81;10141505;28;20053;-69
2021/09/24 15:05:27;;;;;;;13.88;6.20;;;;;;;16.59;82.94;101076.69;10151835;28;20050;-70
2021/09/24 15:10:24;;;;;;;13.90;6.45;;;;;;;16.59;82.94;101073.94;10148539;28;20093;-70
2021/09/24 15:15:23;;;;;;;12.45;5.78;;;;;;;16.61;82.84;101068.81;10152442;28;20050;-70
2021/09/24 15:20:20;;;;;;;13.85;6.88;;;;;;;16.62;82.72;101075.97;10154798;28;20088;-69
2021/09/24 15:25:17;;;;;;;14.93;6.72;;;;;;;16.61;82.68;101065.28;10149761;28;20117;-70
2021/09/24 15:30:17;;;;;;;14.38;6.63;;;;;;;16.63;82.73;101061.00;10151902;28;20081;-70
2021/09/24 15:35:15;;;;;;;11.88;6.20;;;;;;;16.63;82.70;101055.47;10149428;28;20058;-69
2021/09/24 15:40:14;;;;;;;18.45;7.07;;;;;;;16.65;82.84;101046.06;10146652;28;20113;-70
2021/09/24 15:45:13;;;;;;;12.77;7.22;;;;;;;16.65;82.98;101054.34;10150257;28;20074;-69
2021/09/24 15:50:12;;;;;;;18.08;7.72;;;;;;;16.65;82.97;101068.16;10154332;28;20460;-69
2021/09/24 15:55:10;;;;;;;17.55;8.57;;;;;;;16.63;83.14;101057.44;10140912;28;20069;-69
2021/09/24 16:00:09;;;;;;;16.85;9.85;;;;;;;16.61;83.41;101060.53;10152283;28;20046;-70
2021/09/24 16:05:06;;;;;;;16.38;10.35;;;;;;;16.60;83.64;101061.72;10144400;28;20137;-69
2021/09/24 16:10:05;;;;;;;14.32;9.05;;;;;;;16.60;83.82;101061.72;10151325;28;20447;-69
2021/09/24 16:15:03;;;;;;;18.65;11.07;;;;;;;16.61;84.14;101052.25;10147879;28;20133;-69
2021/09/24 16:20:00;;;;;;;22.90;13.48;;;;;;;16.61;84.74;101046.75;10152113;28;20073;-69
2021/09/24 16:24:59;;;;;;;22.55;13.93;;;;;;;16.60;84.73;101050.69;10149815;28;20136;-68
2021/09/24 16:29:56;;;;;;;22.83;13.77;;;;;;;16.61;85.02;101046.75;10144205;28;20046;-69
2021/09/24 16:34:53;;;;;;;24.33;14.80;;;;;;;16.63;85.01;101061.00;10146636;28;20073;-69
2021/09/24 16:39:49;;;;;;;24.85;14.82;;;;;;;16.61;85.55;101057.78;10147426;28;20472;-70
2021/09/24 16:44:46;;;;;;;21.05;14.45;;;;;;;16.62;85.71;101048.38;10146679;28;20531;-68
2021/09/24 16:49:42;;;;;;;20.52;14.48;;;;;;;16.62;86.08;101042.84;10164400;28;20074;-69
2021/09/24 16:54:39;;;;;;;25.80;16.40;;;;;;;16.62;86.40;101058.63;10153575;28;20093;-70
2021/09/24 16:59:35;;;;;;;25.38;15.68;;;;;;;16.63;86.54;101043.66;10158822;28;20042;-69
2021/09/24 17:04:32;;;;;;;29.92;17.67;;;;;;;16.62;86.99;101048.38;10146367;28;20042;-69
2021/09/24 17:09:29;;;;;;;29.38;17.88;;;;;;;16.63;87.09;101044.44;10156850;28;20158;-70
2021/09/24 17:14:26;;;;;;;31.77;18.80;;;;;;;16.63;87.40;101044.44;10157071;28;20046;-68
2021/09/24 17:19:22;;;;;;;29.50;19.27;;;;;;;16.65;87.61;101048.81;10153105;28;20576;-69
2021/09/24 17:24:19;;;;;;;35.35;21.15;;;;;;;16.66;87.90;101059.50;10153377;28;20042;-69
2021/09/24 17:29:16;;;;;;;30.40;18.75;;;;;;;16.66;88.22;101053.19;10150599;28;20133;-70
2021/09/24 17:34:12;;;;;;;32.50;19.77;;;;;;;16.68;88.38;101056.41;10153988;28;20030;-69
2021/09/24 17:39:09;;;;;;;40.13;22.42;;;;;;;16.69;88.92;101058.03;10153227;28;20134;-69
2021/09/24 17:44:05;;;;;;;43.63;24.40;;;;;;;16.68;88.76;101054.44;10152597;28;20046;-70
2021/09/24 17:49:02;;;;;;;39.63;22.77;;;;;;;16.68;89.12;101056.41;10154865;28;20073;-70
2021/09/24 17:53:58;;;;;;;38.28;23.08;;;;;;;16.68;89.22;101056.41;10152696;28;20039;-68
2021/09/24 17:58:55;;;;;;;44.45;25.45;;;;;;;16.65;89.49;101059.88;10152216;28;20077;-69
2021/09/24 18:03:51;;;;;;;39.08;24.00;;;;;;;16.62;89.71;101053.88;10151431;28;20047;-69
2021/09/24 18:08:48;;;;;;;41.97;25.75;;;;;;;16.60;90.02;101058.16;10156417;28;20062;-69
2021/09/24 18:13:46;;;;;;;42.38;25.80;;;;;;;16.56;90.20;101069.09;10148356;28;20066;-69
2021/09/24 18:18:43;;;;;;;45.03;25.88;;;;;;;16.56;90.34;101077.38;10155042;28;20505;-70
2021/09/24 18:23:40;;;;;;;44.45;24.83;;;;;;;16.55;90.52;101073.00;10148778;28;20094;-70
2021/09/24 18:28:40;;;;;;;42.95;26.10;;;;;;;16.52;90.77;101079.22;10155299;28;20517;-70
2021/09/24 18:33:36;;;;;;;46.40;25.85;;;;;;;16.49;91.07;101082.69;10153680;28;20492;-70
2021/09/24 18:38:33;;;;;;;46.58;25.73;;;;;;;16.50;91.22;101089.81;10152512;28;20072;-70
2021/09/24 18:43:30;;;;;;;42.17;23.85;;;;;;;16.51;91.29;101091.41;10145774;28;20465;-70
2021/09/24 18:48:26;;;;;;;41.47;25.27;;;;;;;16.51;91.35;101091.41;10151211;28;20496;-70
2021/09/24 18:53:22;;;;;;;46.78;26.30;;;;;;;16.52;91.09;101093.00;10150959;28;20085;-70
2021/09/24 18:58:19;;;;;;;41.53;25.75;;;;;;;16.50;91.35;101109.13;10151480;28;20527;-70
2021/09/24 19:03:16;;;;;;;41.00;26.45;;;;;;;16.46;91.55;101093.63;10148672;28;20042;-71
2021/09/24 19:08:13;;;;;;;39.20;25.40;;;;;;;16.49;91.45;101107.50;10151442;28;20053;-70
2021/09/24 19:13:09;;;;;;;37.92;24.65;;;;;;;16.50;91.54;101100.88;10148836;28;20432;-70
2021/09/24 19:18:06;;;;;;;42.90;26.88;;;;;;;16.50;91.40;101106.38;10146167;28;20492;-70
2021/09/24 19:23:02;;;;;;;38.25;25.40;;;;;;;16.49;91.61;101110.28;10149814;28;20069;-70
2021/09/24 19:27:59;;;;;;;38.92;26.17;;;;;;;16.50;91.43;101119.34;10149070;28;20073;-70
2021/09/24 19:32:56;;;;;;;37.40;24.73;;;;;;;16.51;91.45;101107.19;10149484;28;20078;-70
2021/09/24 19:37:52;;;;;;;44.72;26.40;;;;;;;16.50;91.61;101106.38;10148185;28;20085;-70
2021/09/24 19:42:49;;;;;;;41.80;27.13;;;;;;;16.49;91.49;101115.78;10149225;28;20066;-70
2021/09/24 19:47:46;;;;;;;38.03;26.00;;;;;;;16.50;91.61;101127.63;10153076;28;20116;-70
2021/09/24 19:52:43;;;;;;;39.25;25.80;;;;;;;16.51;91.52;101124.53;10148515;28;20061;-70
2021/09/24 19:57:40;;;;;;;37.45;25.23;;;;;;;16.50;91.67;101122.94;10147892;28;20074;-71
2021/09/24 20:02:37;;;;;;;39.28;25.05;;;;;;;16.50;91.45;101111.91;10148967;28;20057;-70
2021/09/24 20:07:34;;;;;;;38.28;25.40;;;;;;;16.50;91.67;101117.41;10142991;28;20794;-71
2021/09/24 20:12:32;;;;;;;44.67;26.13;;;;;;;16.49;91.64;101120.53;10150204;28;20070;-70
2021/09/24 20:17:28;;;;;;;36.22;26.10;;;;;;;16.47;91.93;101111.78;10149240;28;20141;-70
2021/09/24 20:22:25;;;;;;;41.60;25.23;;;;;;;16.45;91.92;101109.34;10155496;28;20109;-69
2021/09/24 20:27:22;;;;;;;39.78;25.67;;;;;;;16.45;92.20;101114.88;10151525;28;20539;-71
2021/09/24 20:32:18;;;;;;;38.33;25.95;;;;;;;16.44;92.33;101115.25;10160328;28;20455;-71
2021/09/24 20:37:14;;;;;;;35.60;24.48;;;;;;;16.43;92.41;101117.22;10155192;28;20112;-71
2021/09/24 20:42:11;;;;;;;34.33;25.45;;;;;;;16.42;92.44;101121.91;10160118;28;20050;-68
2021/09/24 20:47:07;;;;;;;36.17;25.33;;;;;;;16.44;92.38;101110.53;10156921;28;20073;-69
2021/09/24 20:52:04;;;;;;;38.22;25.75;;;;;;;16.44;92.57;101113.28;10158433;28;20460;-70
2021/09/24 20:57:01;;;;;;;36.72;25.52;;;;;;;16.46;92.27;101105.47;10154657;28;20504;-70
2021/09/24 21:01:58;;;;;;;37.38;25.25;;;;;;;16.44;92.20;101112.47;10154935;28;20109;-71
2021/09/24 21:06:55;;;;;;;33.33;25.52;;;;;;;16.46;92.08;101110.97;10158792;28;20117;-70
2021/09/24 21:11:52;;;;;;;37.60;24.77;;;;;;;16.45;92.33;101111.31;10154336;28;20496;-69
2021/09/24 21:16:49;;;;;;;37.28;26.13;;;;;;;16.39;93.34;101127.31;10158678;28;20137;-70
2021/09/24 21:21:45;;;;;;;32.38;22.73;;;;;;;16.34;93.16;101124.81;10154472;28;20043;-70
2021/09/24 21:26:42;;;;;;;28.52;21.75;;;;;;;16.34;92.60;101124.81;10157180;28;20046;-70
2021/09/24 21:31:38;;;;;;;28.52;18.65;;;;;;;16.33;91.78;101120.44;10153200;28;20104;-71
2021/09/24 21:36:35;;;;;;;26.13;19.30;;;;;;;16.35;91.47;101115.38;10148681;28;20047;-70
2021/09/24 21:41:31;;;;;;;27.25;18.02;;;;;;;16.36;90.64;101123.31;10151726;28;20074;-70
2021/09/24 21:46:28;;;;;;;25.40;18.45;;;;;;;16.37;90.52;101119.38;10133730;28;20085;-71
2021/09/24 21:51:25;;;;;;;25.50;17.02;;;;;;;16.35;89.85;101121.69;10156965;28;20050;-70
2021/09/24 21:56:21;;;;;;;20.70;15.20;;;;;;;16.39;89.58;101116.28;10155139;28;20116;-69
2021/09/24 22:01:18;;;;;;;21.63;16.20;;;;;;;16.37;89.98;101118.59;10154866;28;20050;-70
2021/09/24 22:06:15;;;;;;;22.33;15.18;;;;;;;16.35;88.73;101115.38;10154515;28;20046;-71
2021/09/24 22:11:11;;;;;;;16.42;12.48;;;;;;;16.32;88.53;101116.88;10155225;28;20042;-71
2021/09/24 22:16:08;;;;;;;16.95;11.02;;;;;;;16.30;87.31;101107.34;10156171;28;20492;-70
2021/09/24 22:21:05;;;;;;;13.55;8.88;;;;;;;16.30;86.66;101107.34;10154659;28;20052;-71
2021/09/24 22:26:03;;;;;;;12.48;7.78;;;;;;;16.30;85.57;101107.34;10146308;28;20456;-71